createdAt,value
2019-05-03T00:00:31.927Z,12.15
2019-05-03T00:01:32.168Z,12.08
2019-05-03T00:02:32.182Z,12.07
2019-05-03T00:03:32.003Z,12.07
2019-05-03T00:04:31.589Z,12.08
2019-05-03T00:05:32.316Z,12.12
2019-05-03T00:06:32.003Z,12.15
2019-05-03T00:07:31.717Z,12.00
2019-05-03T00:08:30.184Z,12.02
2019-05-03T00:09:31.934Z,12.00
2019-05-03T00:10:31.770Z,11.99
2019-05-03T00:11:30.125Z,12.05
2019-05-03T00:12:30.108Z,11.97
2019-05-03T00:13:30.087Z,12.00
2019-05-03T00:14:30.067Z,12.08
2019-05-03T00:15:32.225Z,12.00
2019-05-03T00:16:30.028Z,12.00
2019-05-03T00:17:30.033Z,12.00
2019-05-03T00:18:29.989Z,12.10
2019-05-03T00:19:29.971Z,11.99
2019-05-03T00:20:29.955Z,11.95
2019-05-03T00:21:29.971Z,11.96
2019-05-03T00:22:29.913Z,11.97
2019-05-03T00:23:29.896Z,11.99
2019-05-03T00:24:31.920Z,11.95
2019-05-03T00:25:29.853Z,11.96
2019-05-03T00:26:31.710Z,11.96
2019-05-03T00:27:29.817Z,11.95
2019-05-03T00:28:29.798Z,12.02
2019-05-03T00:29:29.777Z,11.96
2019-05-03T00:30:31.840Z,11.97
2019-05-03T00:31:31.778Z,11.86
2019-05-03T00:32:29.722Z,11.96
2019-05-03T00:33:31.670Z,11.91
2019-05-03T00:34:29.680Z,11.93
2019-05-03T00:35:29.661Z,11.85
2019-05-03T00:36:29.645Z,12.03
2019-05-03T00:37:29.625Z,12.00
2019-05-03T00:38:29.604Z,11.91
2019-05-03T00:39:29.585Z,11.95
2019-05-03T00:40:29.567Z,11.96
2019-05-03T00:41:29.548Z,11.93
2019-05-03T00:42:29.526Z,12.02
2019-05-03T00:43:29.509Z,12.00
2019-05-03T00:44:31.594Z,11.93
2019-05-03T00:45:31.497Z,11.93
2019-05-03T00:46:29.449Z,11.97
2019-05-03T00:47:29.429Z,12.02
2019-05-03T00:48:29.410Z,11.95
2019-05-03T00:49:29.390Z,11.91
2019-05-03T00:50:29.371Z,12.05
2019-05-03T00:51:29.352Z,11.97
2019-05-03T00:52:29.334Z,11.91
2019-05-03T00:53:29.313Z,12.05
2019-05-03T00:54:29.298Z,12.00
2019-05-03T00:55:29.276Z,11.91
2019-05-03T00:56:29.256Z,12.02
2019-05-03T00:57:29.236Z,11.96
2019-05-03T00:58:29.214Z,11.97
2019-05-03T00:59:29.200Z,11.88
2019-05-03T01:00:29.176Z,11.85
2019-05-03T01:01:29.157Z,11.83
2019-05-03T01:02:29.138Z,11.86
2019-05-03T01:03:29.120Z,11.91
2019-05-03T01:04:29.101Z,11.86
2019-05-03T01:05:29.080Z,11.86
2019-05-03T01:06:29.059Z,11.83
2019-05-03T01:07:29.042Z,11.81
2019-05-03T01:08:29.022Z,11.85
2019-05-03T01:09:29.002Z,11.81
2019-05-03T01:10:28.982Z,11.83
2019-05-03T01:11:28.963Z,11.77
2019-05-03T01:12:28.943Z,11.78
2019-05-03T01:13:28.930Z,11.81
2019-05-03T01:14:28.926Z,11.77
2019-05-03T01:16:28.913Z,11.68
2019-05-03T01:17:28.886Z,11.83
2019-05-03T01:18:28.866Z,11.70
2019-05-03T01:19:28.855Z,11.74
2019-05-03T01:20:28.834Z,11.71
2019-05-03T01:21:28.813Z,11.71
2019-05-03T01:22:51.768Z,11.77
2019-05-03T01:23:28.769Z,11.74
2019-05-03T01:24:28.753Z,11.77
2019-05-03T01:25:32.544Z,11.74
2019-05-03T01:26:28.712Z,11.74
2019-05-03T01:27:28.693Z,11.74
2019-05-03T01:28:49.674Z,11.73
2019-05-03T01:29:28.657Z,11.76
2019-05-03T01:30:28.634Z,11.71
2019-05-03T01:31:28.612Z,11.71
2019-05-03T01:32:28.596Z,11.78
2019-05-03T01:33:28.578Z,11.74
2019-05-03T01:34:49.568Z,11.68
2019-05-03T01:35:28.536Z,11.70
2019-05-03T01:36:28.522Z,11.65
2019-05-03T01:37:28.504Z,11.71
2019-05-03T01:38:28.480Z,11.59
2019-05-03T01:39:28.458Z,11.65
2019-05-03T01:40:49.443Z,11.73
2019-05-03T01:41:28.424Z,11.63
2019-05-03T01:42:28.400Z,11.70
2019-05-03T01:43:28.380Z,11.68
2019-05-03T01:44:28.366Z,11.65
2019-05-03T01:45:28.342Z,11.70
2019-05-03T01:46:49.333Z,11.58
2019-05-03T01:47:28.306Z,11.70
2019-05-03T01:48:28.286Z,11.55
2019-05-03T01:49:28.271Z,11.58
2019-05-03T01:50:28.247Z,11.65
2019-05-03T01:51:28.228Z,11.62
2019-05-03T01:52:49.220Z,11.59
2019-05-03T01:53:28.192Z,11.56
2019-05-03T01:54:28.164Z,11.62
2019-05-03T01:55:28.146Z,11.56
2019-05-03T01:56:28.131Z,11.58
2019-05-03T01:57:28.118Z,11.62
2019-05-03T01:58:49.093Z,11.60
2019-05-03T01:59:28.069Z,11.55
2019-05-03T02:00:28.049Z,11.53
2019-05-03T02:01:28.029Z,11.53
2019-05-03T02:02:28.009Z,11.56
2019-05-03T02:03:27.991Z,11.48
2019-05-03T02:04:48.974Z,11.51
2019-05-03T02:05:27.949Z,11.49
2019-05-03T02:06:27.932Z,11.51
2019-05-03T02:07:27.914Z,11.49
2019-05-03T02:08:27.898Z,11.56
2019-05-03T02:09:27.879Z,11.56
2019-05-03T02:10:48.862Z,11.56
2019-05-03T02:11:27.839Z,11.59
2019-05-03T02:12:27.813Z,11.59
2019-05-03T02:13:27.799Z,11.60
2019-05-03T02:14:27.781Z,11.59
2019-05-03T02:15:27.757Z,11.62
2019-05-03T02:16:48.740Z,11.56
2019-05-03T02:17:27.715Z,11.59
2019-05-03T02:18:27.694Z,11.56
2019-05-03T02:19:27.676Z,11.52
2019-05-03T02:20:27.661Z,11.58
2019-05-03T02:21:27.639Z,11.49
2019-05-03T02:22:48.623Z,11.53
2019-05-03T02:23:27.598Z,11.53
2019-05-03T02:24:27.581Z,11.56
2019-05-03T02:25:27.557Z,11.49
2019-05-03T02:26:27.537Z,11.52
2019-05-03T02:27:27.519Z,11.53
2019-05-03T02:28:48.507Z,11.49
2019-05-03T02:29:27.480Z,11.52
2019-05-03T02:30:27.464Z,11.60
2019-05-03T02:31:27.452Z,11.60
2019-05-03T02:32:27.427Z,11.58
2019-05-03T02:33:27.408Z,11.58
2019-05-03T02:34:48.391Z,11.60
2019-05-03T02:35:27.360Z,11.60
2019-05-03T02:36:27.367Z,11.59
2019-05-03T02:37:27.341Z,11.55
2019-05-03T02:38:27.305Z,11.58
2019-05-03T02:39:27.287Z,11.56
2019-05-03T02:40:48.270Z,11.62
2019-05-03T02:41:27.249Z,11.56
2019-05-03T02:42:27.224Z,11.59
2019-05-03T02:43:27.209Z,11.55
2019-05-03T02:44:27.193Z,11.63
2019-05-03T02:45:27.178Z,11.59
2019-05-03T02:46:48.150Z,11.62
2019-05-03T02:47:27.126Z,11.55
2019-05-03T02:48:27.117Z,11.53
2019-05-03T02:49:27.091Z,11.49
2019-05-03T02:50:27.068Z,11.49
2019-05-03T02:51:27.047Z,11.43
2019-05-03T02:52:48.036Z,11.44
2019-05-03T02:53:27.012Z,11.45
2019-05-03T02:54:27.320Z,11.51
2019-05-03T02:55:26.971Z,11.43
2019-05-03T02:56:26.952Z,11.45
2019-05-03T02:57:26.926Z,11.48
2019-05-03T02:58:47.921Z,11.43
2019-05-03T02:59:26.894Z,11.40
2019-05-03T03:00:26.869Z,11.38
2019-05-03T03:01:26.913Z,11.35
2019-05-03T03:02:26.830Z,11.44
2019-05-03T03:03:26.820Z,11.49
2019-05-03T03:04:47.810Z,11.48
2019-05-03T03:05:26.774Z,11.49
2019-05-03T03:06:27.048Z,11.51
2019-05-03T03:07:26.737Z,11.53
2019-05-03T03:08:26.716Z,11.59
2019-05-03T03:09:26.691Z,11.49
2019-05-03T03:10:47.678Z,11.49
2019-05-03T03:11:26.653Z,11.59
2019-05-03T03:12:26.634Z,11.49
2019-05-03T03:13:26.608Z,11.41
2019-05-03T03:14:26.591Z,11.34
2019-05-03T03:15:26.605Z,11.37
2019-05-03T03:16:47.559Z,11.31
2019-05-03T03:17:26.540Z,11.35
2019-05-03T03:18:26.515Z,11.38
2019-05-03T03:19:26.488Z,11.37
2019-05-03T03:20:26.474Z,11.44
2019-05-03T03:21:26.469Z,11.38
2019-05-03T03:22:47.433Z,11.35
2019-05-03T03:23:26.555Z,11.33
2019-05-03T03:24:26.389Z,11.45
2019-05-03T03:25:26.391Z,11.44
2019-05-03T03:26:37.537Z,11.40
2019-05-03T03:27:26.337Z,11.35
2019-05-03T03:28:47.327Z,11.38
2019-05-03T03:29:26.301Z,11.33
2019-05-03T03:30:28.922Z,11.40
2019-05-03T03:31:28.259Z,11.27
2019-05-03T03:32:29.197Z,11.23
2019-05-03T03:33:28.150Z,11.22
2019-05-03T03:34:54.600Z,11.23
2019-05-03T03:35:29.968Z,11.34
2019-05-03T03:36:48.601Z,11.30
2019-05-03T03:37:26.206Z,11.35
2019-05-03T03:38:26.321Z,11.33
2019-05-03T03:39:26.426Z,11.37
2019-05-03T03:40:47.079Z,11.41
2019-05-03T03:41:26.057Z,11.40
2019-05-03T03:42:26.046Z,11.35
2019-05-03T03:43:26.127Z,11.25
2019-05-03T03:44:26.008Z,11.22
2019-05-03T03:45:25.975Z,11.23
2019-05-03T03:46:46.965Z,11.22
2019-05-03T03:47:27.285Z,11.22
2019-05-03T03:48:26.516Z,11.25
2019-05-03T03:49:26.395Z,11.33
2019-05-03T03:50:26.147Z,11.23
2019-05-03T03:51:26.485Z,11.25
2019-05-03T03:52:46.841Z,11.22
2019-05-03T03:53:26.556Z,11.20
2019-05-03T03:54:26.139Z,11.26
2019-05-03T03:55:26.570Z,11.13
2019-05-03T03:56:25.768Z,11.25
2019-05-03T03:57:25.983Z,11.19
2019-05-03T03:58:46.717Z,11.20
2019-05-03T03:59:26.595Z,11.19
2019-05-03T04:00:26.016Z,11.23
2019-05-03T04:01:26.669Z,11.22
2019-05-03T04:02:26.387Z,11.19
2019-05-03T04:03:26.246Z,11.23
2019-05-03T04:04:46.601Z,11.30
2019-05-03T04:05:25.792Z,11.22
2019-05-03T04:06:26.840Z,11.26
2019-05-03T04:07:26.174Z,11.30
2019-05-03T04:08:25.518Z,11.18
2019-05-03T04:09:25.949Z,11.16
2019-05-03T04:10:46.579Z,11.15
2019-05-03T04:11:25.974Z,11.19
2019-05-03T04:12:26.502Z,11.15
2019-05-03T04:13:25.720Z,11.20
2019-05-03T04:14:25.559Z,11.15
2019-05-03T04:15:26.207Z,11.19
2019-05-03T04:16:46.362Z,11.18
2019-05-03T04:17:26.139Z,11.16
2019-05-03T04:18:25.696Z,11.18
2019-05-03T04:19:25.304Z,11.10
2019-05-03T04:20:25.858Z,11.10
2019-05-03T04:21:25.725Z,11.10
2019-05-03T04:22:46.241Z,11.04
2019-05-03T04:23:26.395Z,11.04
2019-05-03T04:24:25.867Z,11.05
2019-05-03T04:25:26.282Z,11.04
2019-05-03T04:26:29.580Z,11.07
2019-05-03T04:27:27.600Z,11.10
2019-05-03T04:28:46.129Z,11.07
2019-05-03T04:29:25.481Z,11.00
2019-05-03T04:30:25.696Z,11.07
2019-05-03T04:31:26.192Z,11.07
2019-05-03T04:32:28.762Z,11.05
2019-05-03T04:33:26.962Z,11.05
2019-05-03T04:34:46.003Z,11.05
2019-05-03T04:35:26.556Z,11.12
2019-05-03T04:36:26.221Z,11.07
2019-05-03T04:37:26.628Z,11.15
2019-05-03T04:38:25.786Z,11.07
2019-05-03T04:39:25.600Z,11.12
2019-05-03T04:40:45.897Z,11.16
2019-05-03T04:41:26.983Z,11.15
2019-05-03T04:42:25.627Z,11.16
2019-05-03T04:43:26.391Z,11.08
2019-05-03T04:44:25.997Z,11.07
2019-05-03T04:45:25.543Z,11.04
2019-05-03T04:46:46.525Z,11.00
2019-05-03T04:47:26.305Z,11.02
2019-05-03T04:48:25.327Z,10.94
2019-05-03T04:49:26.242Z,10.92
2019-05-03T04:50:25.455Z,10.97
2019-05-03T04:51:25.814Z,10.97
2019-05-03T04:52:46.395Z,10.94
2019-05-03T04:53:25.956Z,10.90
2019-05-03T04:54:25.370Z,10.95
2019-05-03T04:55:26.590Z,10.97
2019-05-03T04:56:25.920Z,11.01
2019-05-03T04:57:36.691Z,11.02
2019-05-03T04:58:45.935Z,11.02
2019-05-03T04:59:25.425Z,11.07
2019-05-03T05:00:25.684Z,11.02
2019-05-03T05:01:26.122Z,10.97
2019-05-03T05:02:26.353Z,10.98
2019-05-03T05:03:26.480Z,10.92
2019-05-03T05:04:46.714Z,10.97
2019-05-03T05:05:26.189Z,10.94
2019-05-03T05:06:25.818Z,10.92
2019-05-03T05:07:26.192Z,10.87
2019-05-03T05:08:25.451Z,10.97
2019-05-03T05:09:25.898Z,10.95
2019-05-03T05:10:46.556Z,11.07
2019-05-03T05:11:26.341Z,11.01
2019-05-03T05:12:25.440Z,11.02
2019-05-03T05:13:25.204Z,11.05
2019-05-03T05:14:25.845Z,11.10
2019-05-03T05:15:26.458Z,11.02
2019-05-03T05:16:46.520Z,11.19
2019-05-03T05:17:26.293Z,11.19
2019-05-03T05:18:26.357Z,11.12
2019-05-03T05:19:25.482Z,11.10
2019-05-03T05:20:25.640Z,11.19
2019-05-03T05:21:32.969Z,11.13
2019-05-03T05:23:17.845Z,11.19
2019-05-03T05:24:17.618Z,11.16
2019-05-03T05:26:11.034Z,11.15
2019-05-03T05:27:10.672Z,11.13
2019-05-03T05:29:05.338Z,11.10
2019-05-03T05:30:04.603Z,11.18
2019-05-03T05:31:57.611Z,11.19
2019-05-03T05:32:57.343Z,11.16
2019-05-03T05:34:50.942Z,11.18
2019-05-03T05:35:51.006Z,11.18
2019-05-03T05:36:51.211Z,11.19
2019-05-03T05:37:50.586Z,11.20
2019-05-03T05:38:50.582Z,11.20
2019-05-03T05:39:50.578Z,11.16
2019-05-03T05:40:50.815Z,11.19
2019-05-03T05:41:50.855Z,11.16
2019-05-03T05:42:50.757Z,11.19
2019-05-03T05:43:50.764Z,11.16
2019-05-03T05:44:50.742Z,11.10
2019-05-03T05:45:50.464Z,11.13
2019-05-03T05:46:50.669Z,11.15
2019-05-03T05:47:50.387Z,11.23
2019-05-03T05:48:50.377Z,11.20
2019-05-03T05:49:50.347Z,11.26
2019-05-03T05:50:50.327Z,11.22
2019-05-03T05:51:50.308Z,11.25
2019-05-03T05:52:50.288Z,11.22
2019-05-03T05:53:50.268Z,11.25
2019-05-03T05:54:50.246Z,11.22
2019-05-03T05:55:50.229Z,11.23
2019-05-03T05:56:50.210Z,11.25
2019-05-03T05:58:01.985Z,11.26
2019-05-03T05:58:50.167Z,11.19
2019-05-03T05:59:50.155Z,11.20
2019-05-03T06:00:50.128Z,11.27
2019-05-03T06:01:50.128Z,11.38
2019-05-03T06:02:50.094Z,11.41
2019-05-03T06:03:50.067Z,11.38
2019-05-03T06:04:50.049Z,11.49
2019-05-03T06:05:50.027Z,11.45
2019-05-03T06:06:50.010Z,11.51
2019-05-03T06:07:49.987Z,11.45
2019-05-03T06:08:49.968Z,11.56
2019-05-03T06:09:49.949Z,11.52
2019-05-03T06:10:49.926Z,11.55
2019-05-03T06:11:49.908Z,11.52
2019-05-03T06:12:49.889Z,11.49
2019-05-03T06:13:49.871Z,11.51
2019-05-03T06:14:49.849Z,11.51
2019-05-03T06:15:49.829Z,11.56
2019-05-03T06:16:49.812Z,11.49
2019-05-03T06:17:49.794Z,11.48
2019-05-03T06:18:49.769Z,11.44
2019-05-03T06:19:49.750Z,11.48
2019-05-03T06:20:49.735Z,11.49
2019-05-03T06:21:49.711Z,11.45
2019-05-03T06:22:49.688Z,11.45
2019-05-03T06:23:49.671Z,11.48
2019-05-03T06:24:49.655Z,11.51
2019-05-03T06:25:49.629Z,11.37
2019-05-03T06:26:49.609Z,11.35
2019-05-03T06:27:49.588Z,11.38
2019-05-03T06:28:49.570Z,11.49
2019-05-03T06:29:49.573Z,11.44
2019-05-03T06:30:49.528Z,11.49
2019-05-03T06:31:49.508Z,11.45
2019-05-03T06:32:49.490Z,11.49
2019-05-03T06:33:52.325Z,11.52
2019-05-03T06:34:49.452Z,11.44
2019-05-03T06:35:49.431Z,11.49
2019-05-03T06:36:51.418Z,11.44
2019-05-03T06:37:49.391Z,11.48
2019-05-03T06:38:49.373Z,11.48
2019-05-03T06:39:49.355Z,11.56
2019-05-03T06:40:49.332Z,11.52
2019-05-03T06:41:49.310Z,11.56
2019-05-03T06:42:54.608Z,11.56
2019-05-03T06:43:49.272Z,11.67
2019-05-03T06:44:49.254Z,11.78
2019-05-03T06:45:50.542Z,11.68
2019-05-03T06:46:49.217Z,11.76
2019-05-03T06:47:50.097Z,11.83
2019-05-03T06:48:49.178Z,11.88
2019-05-03T06:49:49.153Z,11.89
2019-05-03T06:50:49.133Z,11.95
2019-05-03T06:51:49.942Z,11.96
2019-05-03T06:52:49.094Z,11.91
2019-05-03T06:53:50.620Z,12.02
2019-05-03T06:54:49.053Z,11.95
2019-05-03T06:55:49.034Z,12.10
2019-05-03T06:56:49.034Z,11.91
2019-05-03T06:57:49.663Z,11.97
2019-05-03T06:58:48.978Z,12.05
2019-05-03T06:59:48.957Z,11.95
2019-05-03T07:00:48.941Z,11.97
2019-05-03T07:01:48.915Z,12.02
2019-05-03T07:02:48.920Z,12.14
2019-05-03T07:03:48.876Z,12.11
2019-05-03T07:04:48.859Z,12.23
2019-05-03T07:05:48.842Z,12.26
2019-05-03T07:06:48.817Z,12.21
2019-05-03T07:07:48.805Z,12.21
2019-05-03T07:08:48.779Z,12.29
2019-05-03T07:09:48.757Z,12.40
2019-05-03T07:10:48.770Z,12.39
2019-05-03T07:11:48.719Z,12.39
2019-05-03T07:12:48.699Z,12.45
2019-05-03T07:13:48.678Z,12.45
2019-05-03T07:14:50.464Z,12.40
2019-05-03T07:15:48.640Z,12.48
2019-05-03T07:16:48.625Z,12.45
2019-05-03T07:17:48.600Z,12.36
2019-05-03T07:18:48.640Z,12.40
2019-05-03T07:19:48.562Z,12.44
2019-05-03T07:20:48.543Z,12.55
2019-05-03T07:21:48.525Z,12.57
2019-05-03T07:22:48.505Z,12.43
2019-05-03T07:23:48.486Z,12.51
2019-05-03T07:24:48.470Z,12.53
2019-05-03T07:25:48.445Z,12.54
2019-05-03T07:26:48.428Z,12.39
2019-05-03T07:27:48.410Z,12.36
2019-05-03T07:28:50.055Z,12.45
2019-05-03T07:29:48.370Z,12.45
2019-05-03T07:30:48.352Z,12.32
2019-05-03T07:31:48.331Z,12.39
2019-05-03T07:32:48.309Z,12.26
2019-05-03T07:33:48.302Z,12.23
2019-05-03T07:34:48.272Z,12.25
2019-05-03T07:35:48.257Z,12.18
2019-05-03T07:36:48.239Z,12.17
2019-05-03T07:37:48.211Z,12.20
2019-05-03T07:38:48.194Z,12.21
2019-05-03T07:39:48.174Z,12.20
2019-05-03T07:40:48.161Z,12.21
2019-05-03T07:41:48.135Z,12.32
2019-05-03T07:42:48.117Z,12.40
2019-05-03T07:43:48.104Z,12.47
2019-05-03T07:44:48.078Z,12.54
2019-05-03T07:45:48.058Z,12.58
2019-05-03T07:46:48.038Z,12.43
2019-05-03T07:47:48.020Z,12.55
2019-05-03T07:48:48.000Z,12.55
2019-05-03T07:49:47.979Z,12.51
2019-05-03T07:50:47.959Z,12.57
2019-05-03T07:51:47.952Z,12.47
2019-05-03T07:52:47.923Z,12.61
2019-05-03T07:53:47.905Z,12.55
2019-05-03T07:54:47.884Z,12.51
2019-05-03T07:55:47.864Z,12.47
2019-05-03T07:56:47.848Z,12.48
2019-05-03T07:57:47.858Z,12.53
2019-05-03T07:58:59.417Z,12.54
2019-05-03T07:59:47.786Z,12.53
2019-05-03T08:00:47.779Z,12.57
2019-05-03T08:01:47.747Z,12.57
2019-05-03T08:02:47.731Z,12.57
2019-05-03T08:03:47.720Z,12.43
2019-05-03T08:04:47.693Z,12.39
2019-05-03T08:05:47.676Z,12.39
2019-05-03T08:06:47.651Z,12.39
2019-05-03T08:07:47.633Z,12.39
2019-05-03T08:08:47.613Z,12.35
2019-05-03T08:09:47.605Z,12.36
2019-05-03T08:10:47.579Z,12.45
2019-05-03T08:11:47.568Z,12.37
2019-05-03T08:12:47.551Z,12.21
2019-05-03T08:13:47.530Z,12.26
2019-05-03T08:14:47.498Z,12.21
2019-05-03T08:15:47.478Z,12.25
2019-05-03T08:16:47.464Z,12.26
2019-05-03T08:17:47.437Z,12.35
2019-05-03T08:18:47.430Z,12.39
2019-05-03T08:19:47.400Z,12.44
2019-05-03T08:20:47.383Z,12.37
2019-05-03T08:21:47.361Z,12.54
2019-05-03T08:22:47.347Z,12.51
2019-05-03T08:23:47.337Z,12.62
2019-05-03T08:24:47.303Z,12.62
2019-05-03T08:25:47.285Z,12.72
2019-05-03T08:26:47.266Z,12.78
2019-05-03T08:27:47.249Z,12.84
2019-05-03T08:28:47.237Z,12.84
2019-05-03T08:29:47.207Z,12.86
2019-05-03T08:30:47.187Z,12.87
2019-05-03T08:31:47.176Z,12.87
2019-05-03T08:32:47.150Z,12.87
2019-05-03T08:33:47.131Z,12.95
2019-05-03T08:34:47.110Z,12.88
2019-05-03T08:35:47.094Z,13.01
2019-05-03T08:36:47.072Z,13.02
2019-05-03T08:37:47.065Z,13.20
2019-05-03T08:38:47.046Z,13.24
2019-05-03T08:39:47.016Z,13.23
2019-05-03T08:40:46.996Z,13.27
2019-05-03T08:41:46.976Z,13.39
2019-05-03T08:42:46.956Z,13.36
2019-05-03T08:43:46.938Z,13.54
2019-05-03T08:44:46.928Z,13.52
2019-05-03T08:45:46.898Z,13.55
2019-05-03T08:46:47.301Z,13.60
2019-05-03T08:47:46.863Z,13.58
2019-05-03T08:48:46.845Z,13.60
2019-05-03T08:49:46.830Z,13.64
2019-05-03T08:50:46.804Z,13.65
2019-05-03T08:51:46.786Z,13.57
2019-05-03T08:52:46.769Z,13.57
2019-05-03T08:53:46.750Z,13.64
2019-05-03T08:54:46.734Z,13.61
2019-05-03T08:55:46.721Z,13.60
2019-05-03T08:56:46.692Z,13.64
2019-05-03T08:57:46.672Z,13.60
2019-05-03T08:58:46.651Z,13.60
2019-05-03T08:59:46.637Z,13.68
2019-05-03T09:00:46.617Z,13.67
2019-05-03T09:01:46.596Z,13.76
2019-05-03T09:02:46.579Z,13.58
2019-05-03T09:03:46.561Z,13.43
2019-05-03T09:04:46.540Z,13.30
2019-05-03T09:05:46.640Z,13.17
2019-05-03T09:06:46.502Z,13.13
2019-05-03T09:07:46.484Z,13.17
2019-05-03T09:08:46.482Z,13.17
2019-05-03T09:09:46.444Z,13.17
2019-05-03T09:10:46.427Z,13.16
2019-05-03T09:11:46.408Z,13.21
2019-05-03T09:15:50.839Z,13.33
2019-05-03T09:16:50.781Z,13.43
2019-05-03T09:18:50.252Z,13.45
2019-05-03T09:20:57.893Z,13.58
2019-05-03T09:21:57.813Z,13.61
2019-05-03T09:23:52.278Z,13.62
2019-05-03T09:24:52.137Z,13.76
2019-05-03T09:26:45.495Z,13.75
2019-05-03T09:27:45.495Z,13.80
2019-05-03T09:29:43.073Z,13.78
2019-05-03T09:30:39.567Z,13.79
2019-05-03T09:32:35.029Z,13.78
2019-05-03T09:33:35.676Z,13.64
2019-05-03T09:35:32.798Z,13.60
2019-05-03T09:36:27.195Z,13.68
2019-05-03T09:38:20.844Z,13.71
2019-05-03T09:39:20.784Z,13.76
2019-05-03T09:41:15.016Z,13.87
2019-05-03T09:42:15.410Z,13.80
2019-05-03T09:44:07.563Z,13.95
2019-05-03T09:45:07.411Z,14.03
2019-05-03T09:47:00.914Z,14.01
2019-05-03T09:48:00.843Z,13.89
2019-05-03T09:49:55.691Z,13.85
2019-05-03T09:50:55.607Z,13.85
2019-05-03T09:52:47.369Z,13.78
2019-05-03T09:53:47.139Z,13.67
2019-05-03T09:55:40.810Z,13.71
2019-05-03T09:56:53.365Z,13.78
2019-05-03T09:58:36.452Z,13.75
2019-05-03T09:59:35.013Z,13.73
2019-05-03T10:01:27.315Z,13.80
2019-05-03T10:02:27.119Z,13.79
2019-05-03T10:04:20.664Z,13.93
2019-05-03T10:05:20.460Z,13.97
2019-05-03T10:07:15.307Z,13.98
2019-05-03T10:08:15.779Z,13.94
2019-05-03T10:10:07.313Z,13.87
2019-05-03T10:11:07.131Z,13.86
2019-05-03T10:13:00.628Z,13.79
2019-05-03T10:14:00.424Z,13.91
2019-05-03T10:15:54.915Z,13.70
2019-05-03T10:16:54.743Z,13.60
2019-05-03T10:18:47.496Z,13.91
2019-05-03T10:19:47.123Z,13.98
2019-05-03T10:21:40.518Z,13.85
2019-05-03T10:22:40.399Z,13.86
2019-05-03T10:24:35.107Z,13.93
2019-05-03T10:25:35.713Z,13.95
2019-05-03T10:27:27.243Z,14.01
2019-05-03T10:28:27.050Z,14.00
2019-05-03T10:30:21.637Z,13.87
2019-05-03T10:31:21.385Z,13.91
2019-05-03T10:33:17.035Z,13.89
2019-05-03T10:34:16.707Z,13.85
2019-05-03T10:35:16.691Z,13.87
2019-05-03T10:36:16.676Z,13.89
2019-05-03T10:37:16.654Z,13.91
2019-05-03T10:38:16.634Z,13.97
2019-05-03T10:39:16.623Z,13.95
2019-05-03T10:40:16.663Z,14.12
2019-05-03T10:41:16.637Z,14.13
2019-05-03T10:42:16.561Z,14.25
2019-05-03T10:43:16.545Z,14.36
2019-05-03T10:44:16.561Z,14.38
2019-05-03T10:45:16.512Z,14.53
2019-05-03T10:46:16.500Z,14.67
2019-05-03T10:47:16.696Z,14.71
2019-05-03T10:48:16.451Z,14.96
2019-05-03T10:49:16.433Z,14.94
2019-05-03T10:50:16.422Z,15.05
2019-05-03T10:51:16.396Z,15.05
2019-05-03T10:52:16.380Z,15.14
2019-05-03T10:53:16.362Z,15.22
2019-05-03T10:54:16.343Z,15.14
2019-05-03T10:55:16.327Z,15.07
2019-05-03T10:56:22.689Z,15.07
2019-05-03T10:57:16.292Z,15.12
2019-05-03T10:58:16.277Z,15.18
2019-05-03T10:59:16.254Z,15.37
2019-05-03T11:00:41.569Z,15.41
2019-05-03T11:01:16.220Z,15.51
2019-05-03T11:02:16.198Z,15.54
2019-05-03T11:03:16.183Z,15.65
2019-05-03T11:04:16.196Z,15.67
2019-05-03T11:05:16.162Z,15.54
2019-05-03T11:06:16.129Z,15.57
2019-05-03T11:07:16.113Z,15.51
2019-05-03T11:08:16.094Z,15.44
2019-05-03T11:09:16.081Z,15.35
2019-05-03T11:10:16.059Z,15.25
2019-05-03T11:11:16.044Z,15.07
2019-05-03T11:12:16.028Z,14.97
2019-05-03T11:13:16.013Z,14.94
2019-05-03T11:14:15.988Z,14.99
2019-05-03T11:15:15.970Z,14.94
2019-05-03T11:16:15.952Z,14.96
2019-05-03T11:17:15.933Z,14.96
2019-05-03T11:18:15.916Z,14.93
2019-05-03T11:19:15.904Z,14.94
2019-05-03T11:20:28.257Z,14.94
2019-05-03T11:21:27.870Z,15.04
2019-05-03T11:22:15.848Z,15.04
2019-05-03T11:23:15.829Z,14.93
2019-05-03T11:24:15.812Z,14.94
2019-05-03T11:25:15.793Z,14.96
2019-05-03T11:26:15.777Z,15.08
2019-05-03T11:27:15.758Z,15.07
2019-05-03T11:28:15.750Z,14.94
2019-05-03T11:29:15.979Z,15.05
2019-05-03T11:30:15.833Z,15.33
2019-05-03T11:31:15.687Z,15.52
2019-05-03T11:32:15.693Z,15.47
2019-05-03T11:33:15.653Z,15.43
2019-05-03T11:34:15.639Z,15.45
2019-05-03T11:35:15.620Z,15.60
2019-05-03T11:36:15.601Z,15.41
2019-05-03T11:37:15.584Z,15.32
2019-05-03T11:38:15.567Z,15.30
2019-05-03T11:39:15.553Z,15.41
2019-05-03T11:40:15.822Z,15.33
2019-05-03T11:41:28.830Z,15.48
2019-05-03T11:42:18.457Z,15.47
2019-05-03T11:43:15.479Z,15.44
2019-05-03T11:44:15.463Z,15.54
2019-05-03T11:45:15.447Z,16.74
2019-05-03T11:46:15.428Z,16.77
2019-05-03T11:47:15.412Z,16.89
2019-05-03T11:48:15.394Z,16.77
2019-05-03T11:49:15.377Z,16.61
2019-05-03T11:50:15.365Z,16.51
2019-05-03T11:51:15.371Z,16.77
2019-05-03T11:52:16.019Z,17.24
2019-05-03T11:53:15.313Z,17.17
2019-05-03T11:54:16.610Z,16.74
2019-05-03T11:55:15.920Z,16.50
2019-05-03T11:56:15.261Z,16.47
2019-05-03T11:57:15.791Z,16.37
2019-05-03T11:58:15.232Z,16.13
2019-05-03T11:59:15.211Z,16.00
2019-05-03T12:00:15.201Z,16.24
2019-05-03T12:01:17.036Z,17.56
2019-05-03T12:02:15.411Z,18.57
2019-05-03T12:03:15.563Z,19.53
2019-05-03T12:04:15.392Z,20.04
2019-05-03T12:05:15.191Z,20.80
2019-05-03T12:06:15.633Z,20.75
2019-05-03T12:07:15.999Z,19.90
2019-05-03T12:08:15.071Z,19.08
2019-05-03T12:09:15.530Z,18.66
2019-05-03T12:10:30.707Z,18.34
2019-05-03T12:11:15.230Z,18.09
2019-05-03T12:12:15.226Z,17.84
2019-05-03T12:13:15.791Z,17.57
2019-05-03T12:14:15.587Z,17.32
2019-05-03T12:15:15.160Z,17.14
2019-05-03T12:16:22.316Z,16.99
2019-05-03T12:17:21.072Z,16.92
2019-05-03T12:18:16.233Z,16.86
2019-05-03T12:19:19.799Z,18.16
2019-05-03T12:20:18.197Z,19.17
2019-05-03T12:21:18.078Z,20.27
2019-05-03T12:22:16.578Z,21.20
2019-05-03T12:23:16.323Z,21.50
2019-05-03T12:24:15.902Z,21.88
2019-05-03T12:25:16.733Z,22.30
2019-05-03T12:26:17.494Z,22.33
2019-05-03T12:27:15.055Z,22.53
2019-05-03T12:28:15.287Z,22.10
2019-05-03T12:29:15.331Z,21.10
2019-05-03T12:30:15.322Z,20.50
2019-05-03T12:31:29.721Z,19.90
2019-05-03T12:32:14.731Z,19.66
2019-05-03T12:33:15.378Z,19.42
2019-05-03T12:34:15.942Z,19.23
2019-05-03T12:35:15.319Z,18.78
2019-05-03T12:36:15.397Z,18.81
2019-05-03T12:37:15.499Z,19.99
2019-05-03T12:38:16.501Z,21.26
2019-05-03T12:39:24.369Z,22.26
2019-05-03T12:40:15.040Z,22.81
2019-05-03T12:41:15.088Z,23.07
2019-05-03T12:42:14.895Z,22.73
2019-05-03T12:43:15.026Z,23.54
2019-05-03T12:44:15.252Z,22.93
2019-05-03T12:45:15.257Z,21.78
2019-05-03T12:46:16.713Z,21.99
2019-05-03T12:47:14.706Z,21.66
2019-05-03T12:48:15.503Z,21.30
2019-05-03T12:49:15.521Z,21.65
2019-05-03T12:50:15.657Z,21.28
2019-05-03T12:51:15.363Z,20.66
2019-05-03T12:52:16.502Z,19.90
2019-05-03T12:53:15.209Z,19.15
2019-05-03T12:54:15.207Z,19.62
2019-05-03T12:55:15.387Z,19.01
2019-05-03T12:56:22.574Z,18.58
2019-05-03T12:57:15.485Z,19.72
2019-05-03T12:58:15.048Z,19.79
2019-05-03T12:59:15.998Z,19.42
2019-05-03T13:00:15.617Z,18.96
2019-05-03T13:01:15.716Z,18.36
2019-05-03T13:02:15.488Z,18.51
2019-05-03T13:03:15.229Z,18.41
2019-05-03T13:04:15.313Z,18.53
2019-05-03T13:05:15.492Z,18.05
2019-05-03T13:06:14.897Z,18.00
2019-05-03T13:07:14.849Z,17.93
2019-05-03T13:08:15.276Z,17.69
2019-05-03T13:09:15.962Z,17.39
2019-05-03T13:10:21.165Z,17.27
2019-05-03T13:11:14.219Z,16.99
2019-05-03T13:12:14.734Z,16.68
2019-05-03T13:13:14.635Z,16.32
2019-05-03T13:14:15.717Z,16.28
2019-05-03T13:15:14.492Z,16.25
2019-05-03T13:16:15.327Z,16.16
2019-05-03T13:17:15.232Z,16.18
2019-05-03T13:18:15.707Z,16.22
2019-05-03T13:19:15.182Z,16.22
2019-05-03T13:20:14.163Z,16.16
2019-05-03T13:21:14.079Z,16.22
2019-05-03T13:22:14.069Z,16.26
2019-05-03T13:23:14.054Z,16.61
2019-05-03T13:24:22.886Z,16.46
2019-05-03T13:25:15.493Z,16.39